createdAt,value
2018-10-16T00:01:17.847Z,99751.00
2018-10-16T00:03:46.838Z,99765.00
2018-10-16T00:06:16.124Z,99762.00
2018-10-16T00:08:45.169Z,99772.00
2018-10-16T00:20:25.141Z,99747.00
2018-10-16T00:22:54.505Z,99744.00
2018-10-16T00:25:23.668Z,99747.00
2018-10-16T00:27:53.080Z,99747.00
2018-10-16T00:30:22.373Z,99747.00
2018-10-16T00:32:51.700Z,99749.00
2018-10-16T00:35:20.981Z,99749.00
2018-10-16T00:37:50.131Z,99740.00
2018-10-16T00:40:19.776Z,99758.00
2018-10-16T00:42:49.092Z,99762.00
2018-10-16T00:45:18.615Z,99771.00
2018-10-16T00:47:47.787Z,99769.00
2018-10-16T00:50:16.884Z,99776.00
2018-10-16T00:52:46.210Z,99773.00
2018-10-16T00:55:15.236Z,99772.00
2018-10-16T00:57:44.568Z,99776.00
2018-10-16T01:00:15.185Z,99771.00
2018-10-16T01:02:44.841Z,99769.00
2018-10-16T01:05:14.522Z,99777.00
2018-10-16T01:07:44.039Z,99771.00
2018-10-16T01:10:13.692Z,99770.00
2018-10-16T01:12:43.274Z,99774.00
2018-10-16T01:15:13.131Z,99776.00
2018-10-16T01:17:42.579Z,99775.00
2018-10-16T01:20:13.370Z,99775.00
2018-10-16T01:22:43.108Z,99781.00
2018-10-16T01:25:13.942Z,99772.00
2018-10-16T01:27:43.549Z,99777.00
2018-10-16T01:30:12.835Z,99764.00
2018-10-16T01:32:41.883Z,99763.00
2018-10-16T01:35:12.414Z,99760.00
2018-10-16T01:37:42.729Z,99753.00
2018-10-16T01:40:12.239Z,99742.00
2018-10-16T01:42:41.641Z,99750.00
2018-10-16T01:45:11.593Z,99741.00
2018-10-16T01:47:40.926Z,99749.00
2018-10-16T01:50:12.037Z,99746.00
2018-10-16T01:52:41.436Z,99752.00
2018-10-16T01:55:10.719Z,99757.00
2018-10-16T01:57:41.108Z,99752.00
2018-10-16T02:00:11.389Z,99744.00
2018-10-16T02:02:40.945Z,99756.00
2018-10-16T02:05:10.272Z,99748.00
2018-10-16T02:07:39.332Z,99750.00
2018-10-16T02:10:09.046Z,99751.00
2018-10-16T02:12:38.411Z,99745.00
2018-10-16T02:15:08.504Z,99749.00
2018-10-16T02:17:38.749Z,99755.00
2018-10-16T02:20:08.431Z,99747.00
2018-10-16T02:22:38.229Z,99752.00
2018-10-16T02:25:08.180Z,99745.00
2018-10-16T02:27:37.297Z,99743.00
2018-10-16T02:30:06.642Z,99743.00
2018-10-16T02:32:35.730Z,99738.00
2018-10-16T02:35:05.592Z,99751.00
2018-10-16T02:37:34.989Z,99752.00
2018-10-16T02:40:04.405Z,99761.00
2018-10-16T02:42:33.605Z,99758.00
2018-10-16T02:45:03.052Z,99770.00
2018-10-16T02:47:32.420Z,99766.00
2018-10-16T02:50:01.729Z,99764.00
2018-10-16T02:52:31.063Z,99764.00
2018-10-16T02:55:00.351Z,99766.00
2018-10-16T03:00:43.688Z,99754.00
2018-10-16T03:03:12.786Z,99752.00
2018-10-16T03:05:42.177Z,99762.00
2018-10-16T03:08:11.293Z,99755.00
2018-10-16T03:10:40.689Z,99762.00
2018-10-16T03:13:09.814Z,99765.00
2018-10-16T03:15:39.455Z,99771.00
2018-10-16T03:18:08.760Z,99773.00
2018-10-16T03:20:37.897Z,99785.00
2018-10-16T03:23:07.166Z,99777.00
2018-10-16T03:25:37.888Z,99781.00
2018-10-16T03:28:07.261Z,99784.00
2018-10-16T03:30:36.356Z,99773.00
2018-10-16T03:33:05.448Z,99764.00
2018-10-16T03:35:34.778Z,99765.00
2018-10-16T03:38:03.851Z,99763.00
2018-10-16T03:40:33.188Z,99770.00
2018-10-16T03:43:03.903Z,99769.00
2018-10-16T03:45:33.296Z,99768.00
2018-10-16T03:48:02.791Z,99766.00
2018-10-16T03:50:32.156Z,99770.00
2018-10-16T03:53:01.936Z,99768.00
2018-10-16T03:55:31.373Z,99780.00
2018-10-16T03:58:00.767Z,99783.00
2018-10-16T04:00:30.174Z,99781.00
2018-10-16T04:02:59.213Z,99783.00
2018-10-16T04:05:28.530Z,99773.00
2018-10-16T04:07:57.511Z,99779.00
2018-10-16T04:10:26.548Z,99783.00
2018-10-16T04:12:55.755Z,99775.00
2018-10-16T04:15:25.029Z,99773.00
2018-10-16T04:17:54.227Z,99773.00
2018-10-16T04:20:23.233Z,99772.00
2018-10-16T04:22:53.339Z,99782.00
2018-10-16T04:25:22.243Z,99785.00
2018-10-16T04:27:51.488Z,99792.00
2018-10-16T04:30:20.698Z,99795.00
2018-10-16T04:32:49.654Z,99806.00
2018-10-16T04:35:18.830Z,99800.00
2018-10-16T04:37:47.801Z,99798.00
2018-10-16T04:40:16.985Z,99793.00
2018-10-16T04:42:45.932Z,99794.00
2018-10-16T04:45:15.138Z,99792.00
2018-10-16T04:47:44.315Z,99807.00
2018-10-16T04:50:13.488Z,99800.00
2018-10-16T04:52:42.689Z,99805.00
2018-10-16T04:55:11.663Z,99799.00
2018-10-16T04:57:40.848Z,99808.00
2018-10-16T05:00:10.394Z,99805.00
2018-10-16T05:02:41.396Z,99806.00
2018-10-16T05:05:14.163Z,99819.00
2018-10-16T05:07:43.346Z,99800.00
2018-10-16T05:10:19.644Z,99809.00
2018-10-16T05:12:48.849Z,99803.00
2018-10-16T05:15:26.963Z,99803.00
2018-10-16T05:17:56.285Z,99805.00
2018-10-16T05:20:25.487Z,99804.00
2018-10-16T05:22:54.988Z,99819.00
2018-10-16T05:25:24.839Z,99811.00
2018-10-16T05:27:54.164Z,99809.00
2018-10-16T05:30:23.334Z,99818.00
2018-10-16T05:32:52.680Z,99808.00
2018-10-16T05:35:21.880Z,99808.00
2018-10-16T05:37:50.862Z,99819.00
2018-10-16T05:40:19.806Z,99825.00
2018-10-16T05:42:49.019Z,99825.00
2018-10-16T05:45:18.230Z,99834.00
2018-10-16T05:47:47.507Z,99843.00
2018-10-16T05:50:16.655Z,99830.00
2018-10-16T05:52:45.929Z,99837.00
2018-10-16T05:55:15.117Z,99832.00
2018-10-16T05:57:44.319Z,99836.00
2018-10-16T06:00:30.533Z,99830.00
2018-10-16T06:02:59.738Z,99818.00
2018-10-16T06:05:28.992Z,99823.00
2018-10-16T06:07:58.316Z,99819.00
2018-10-16T06:10:27.245Z,99833.00
2018-10-16T06:12:56.436Z,99833.00
2018-10-16T06:15:25.624Z,99837.00
2018-10-16T06:17:54.816Z,99831.00
2018-10-16T06:20:23.999Z,99832.00
2018-10-16T06:22:53.225Z,99834.00
2018-10-16T06:25:22.422Z,99836.00
2018-10-16T06:27:51.660Z,99840.00
2018-10-16T06:30:20.658Z,99858.00
2018-10-16T06:32:49.774Z,99855.00
2018-10-16T06:35:18.959Z,99858.00
2018-10-16T06:37:47.902Z,99863.00
2018-10-16T06:40:17.076Z,99866.00
2018-10-16T06:42:46.260Z,99876.00
2018-10-16T06:45:15.498Z,99870.00
2018-10-16T06:47:44.724Z,99873.00
2018-10-16T06:50:13.926Z,99883.00
2018-10-16T06:52:43.134Z,99887.00
2018-10-16T06:55:12.367Z,99897.00
2018-10-16T06:57:41.642Z,99892.00
2018-10-16T07:00:10.597Z,99899.00
2018-10-16T07:02:39.863Z,99904.00
2018-10-16T07:05:09.151Z,99909.00
2018-10-16T07:07:38.315Z,99917.00
2018-10-16T07:10:08.053Z,99916.00
2018-10-16T07:12:37.275Z,99911.00
2018-10-16T07:15:07.022Z,99913.00
2018-10-16T07:17:36.127Z,99914.00
2018-10-16T07:20:06.904Z,99919.00
2018-10-16T07:22:36.105Z,99921.00
2018-10-16T07:25:06.598Z,99928.00
2018-10-16T07:27:35.555Z,99916.00
2018-10-16T07:30:05.454Z,99913.00
2018-10-16T07:32:34.614Z,99909.00
2018-10-16T07:35:04.337Z,99914.00
2018-10-16T07:37:33.286Z,99905.00
2018-10-16T07:40:02.469Z,99903.00
2018-10-16T07:42:31.472Z,99898.00
2018-10-16T07:45:00.390Z,99897.00
2018-10-16T07:47:29.578Z,99894.00
2018-10-16T07:49:58.788Z,99901.00
2018-10-16T07:52:28.055Z,99902.00
2018-10-16T07:54:57.238Z,99905.00
2018-10-16T07:57:26.449Z,99910.00
2018-10-16T07:59:55.661Z,99911.00
2018-10-16T08:02:24.607Z,99915.00
2018-10-16T08:04:53.568Z,99915.00
2018-10-16T08:07:22.740Z,99912.00
2018-10-16T08:09:51.998Z,99912.00
2018-10-16T08:12:20.935Z,99921.00
2018-10-16T08:14:50.114Z,99916.00
2018-10-16T08:17:19.327Z,99930.00
2018-10-16T08:19:48.486Z,99929.00
2018-10-16T08:22:17.673Z,99927.00
2018-10-16T08:24:46.943Z,99929.00
2018-10-16T08:27:16.123Z,99922.00
2018-10-16T08:29:45.297Z,99926.00
2018-10-16T08:32:14.475Z,99929.00
2018-10-16T08:34:43.648Z,99928.00
2018-10-16T08:37:18.451Z,99930.00
2018-10-16T08:39:48.740Z,99940.00
2018-10-16T08:43:43.452Z,99935.00
2018-10-16T08:46:29.975Z,99934.00
2018-10-16T08:49:16.202Z,99935.00
2018-10-16T08:51:51.522Z,99927.00
2018-10-16T08:54:20.759Z,99921.00
2018-10-16T08:56:49.915Z,99917.00
2018-10-16T08:59:19.197Z,99921.00
2018-10-16T09:01:48.373Z,99920.00
2018-10-16T09:04:17.583Z,99927.00
2018-10-16T09:06:46.873Z,99931.00
2018-10-16T09:09:16.973Z,99929.00
2018-10-16T09:11:47.327Z,99932.00
2018-10-16T09:14:17.161Z,99936.00
2018-10-16T09:16:46.287Z,99939.00
2018-10-16T09:19:15.578Z,99944.00
2018-10-16T09:21:44.755Z,99948.00
2018-10-16T09:24:13.698Z,99947.00
2018-10-16T09:26:42.647Z,99958.00
2018-10-16T09:29:11.855Z,99968.00
2018-10-16T09:31:40.779Z,99961.00
2018-10-16T09:34:09.726Z,99964.00
2018-10-16T09:36:38.881Z,99956.00
2018-10-16T09:39:10.026Z,99961.00
2018-10-16T09:41:39.235Z,99960.00
2018-10-16T09:44:08.182Z,99956.00
2018-10-16T09:46:37.596Z,99955.00
2018-10-16T09:49:06.998Z,99964.00
2018-10-16T09:51:36.194Z,99965.00
2018-10-16T09:54:05.258Z,99961.00
2018-10-16T09:56:34.591Z,99957.00
2018-10-16T09:59:03.783Z,99966.00
2018-10-16T10:01:38.149Z,99956.00
2018-10-16T10:04:07.262Z,99962.00
2018-10-16T10:06:36.364Z,99958.00
2018-10-16T10:09:08.480Z,99962.00
2018-10-16T10:11:37.352Z,99961.00
2018-10-16T10:14:06.933Z,99965.00
2018-10-16T10:16:36.201Z,99973.00
2018-10-16T10:19:06.501Z,99968.00
2018-10-16T10:21:35.709Z,99976.00
2018-10-16T10:24:04.606Z,99976.00
2018-10-16T10:26:33.774Z,99979.00
2018-10-16T10:29:03.141Z,99973.00
2018-10-16T10:31:32.292Z,99975.00
2018-10-16T10:34:01.423Z,99969.00
2018-10-16T10:36:30.608Z,99976.00
2018-10-16T10:38:59.757Z,99976.00
2018-10-16T10:41:28.929Z,99974.00
2018-10-16T10:43:58.119Z,99976.00
2018-10-16T10:46:27.245Z,99978.00
2018-10-16T10:48:56.157Z,99973.00
2018-10-16T10:51:25.535Z,99972.00
2018-10-16T10:53:54.457Z,99974.00
2018-10-16T10:56:23.583Z,99967.00
2018-10-16T10:58:52.798Z,99971.00
2018-10-16T11:01:21.916Z,99977.00
2018-10-16T11:03:51.077Z,99973.00
2018-10-16T11:06:20.313Z,99971.00
2018-10-16T11:08:49.364Z,99971.00
2018-10-16T11:11:18.258Z,99975.00
2018-10-16T11:13:47.145Z,99973.00
2018-10-16T11:16:16.253Z,99967.00
2018-10-16T11:18:45.381Z,99972.00
2018-10-16T11:21:14.571Z,99970.00
2018-10-16T11:23:43.420Z,99971.00
2018-10-16T11:26:12.574Z,99967.00
2018-10-16T11:28:41.705Z,99966.00
2018-10-16T11:31:10.610Z,99968.00
2018-10-16T11:33:39.794Z,99964.00
2018-10-16T11:36:08.705Z,99975.00
2018-10-16T11:38:37.841Z,99978.00
2018-10-16T11:41:07.029Z,99975.00
2018-10-16T11:43:36.141Z,99972.00
2018-10-16T11:46:05.853Z,99971.00
2018-10-16T11:48:34.852Z,99977.00
2018-10-16T11:51:03.769Z,99978.00
2018-10-16T11:53:42.889Z,99970.00
2018-10-16T11:56:11.895Z,99973.00
2018-10-16T11:58:40.943Z,99973.00
2018-10-16T12:01:10.209Z,99974.00
2018-10-16T12:03:39.099Z,99974.00
2018-10-16T12:06:08.641Z,99969.00
2018-10-16T12:08:37.757Z,99973.00
2018-10-16T12:11:07.252Z,99982.00
2018-10-16T12:13:36.318Z,99977.00
2018-10-16T12:16:05.473Z,99982.00
2018-10-16T12:18:56.973Z,99978.00
2018-10-16T12:21:26.201Z,99980.00
2018-10-16T12:23:55.349Z,99978.00
2018-10-16T12:26:24.458Z,99982.00
2018-10-16T12:28:53.608Z,99982.00
2018-10-16T12:31:22.814Z,99978.00
2018-10-16T12:33:51.932Z,99983.00
2018-10-16T12:36:21.206Z,99984.00
2018-10-16T12:38:50.687Z,99985.00
2018-10-16T12:41:19.798Z,99982.00
2018-10-16T12:43:48.992Z,99986.00
2018-10-16T12:46:18.099Z,99992.00
2018-10-16T12:48:47.270Z,99992.00
2018-10-16T12:51:16.591Z,99988.00
2018-10-16T12:53:45.677Z,99987.00
2018-10-16T12:56:14.916Z,99986.00
2018-10-16T12:58:43.995Z,99995.00
2018-10-16T13:01:12.893Z,99990.00
2018-10-16T13:03:42.108Z,99998.00
2018-10-16T13:06:10.914Z,99992.00
2018-10-16T13:08:40.043Z,99994.00
2018-10-16T13:11:09.172Z,99989.00
2018-10-16T13:13:38.278Z,99991.00
2018-10-16T13:16:07.472Z,99995.00
2018-10-16T13:18:36.526Z,99998.00
2018-10-16T13:21:06.028Z,99994.00
2018-10-16T13:23:41.979Z,100001.00
2018-10-16T13:26:11.078Z,100002.00
2018-10-16T13:28:40.241Z,99994.00
2018-10-16T13:31:09.350Z,99992.00
2018-10-16T13:33:38.491Z,99998.00
2018-10-16T13:36:07.593Z,100002.00
2018-10-16T13:38:36.706Z,100001.00
2018-10-16T13:41:06.045Z,99996.00
2018-10-16T13:43:34.954Z,99998.00
2018-10-16T13:46:04.018Z,99999.00
2018-10-16T13:48:33.493Z,100000.00
2018-10-16T13:51:02.823Z,100001.00
2018-10-16T13:53:31.832Z,99988.00
2018-10-16T13:56:00.973Z,99993.00
2018-10-16T13:58:30.097Z,99994.00
2018-10-16T14:00:58.976Z,99994.00
2018-10-16T14:03:28.125Z,99997.00
2018-10-16T14:05:57.057Z,100000.00
2018-10-16T14:08:26.923Z,99997.00
2018-10-16T14:10:55.823Z,100000.00
2018-10-16T14:13:25.053Z,100005.00
2018-10-16T14:15:54.168Z,99998.00
2018-10-16T14:18:23.117Z,100003.00
2018-10-16T14:20:52.254Z,100003.00
2018-10-16T14:23:21.399Z,100003.00
2018-10-16T14:25:50.652Z,100007.00
2018-10-16T14:28:19.874Z,99999.00
2018-10-16T14:30:48.977Z,100010.00
2018-10-16T14:33:18.117Z,100001.00
2018-10-16T14:35:47.017Z,100009.00
2018-10-16T14:38:16.030Z,100013.00
2018-10-16T14:40:45.086Z,100006.00
2018-10-16T14:43:14.249Z,100007.00
2018-10-16T14:45:43.361Z,100007.00
2018-10-16T14:48:12.559Z,100009.00
2018-10-16T14:50:41.634Z,99999.00
2018-10-16T14:53:10.540Z,100006.00
2018-10-16T14:55:39.750Z,100002.00
2018-10-16T14:58:08.959Z,100000.00
2018-10-16T15:00:38.069Z,100005.00
2018-10-16T15:03:07.250Z,100003.00
2018-10-16T15:05:36.388Z,100007.00
2018-10-16T15:08:05.580Z,100006.00
2018-10-16T15:10:34.796Z,100004.00
2018-10-16T15:13:03.682Z,100004.00
2018-10-16T15:15:32.821Z,100009.00
2018-10-16T15:18:01.937Z,100010.00
2018-10-16T15:20:31.076Z,100010.00
2018-10-16T15:22:59.965Z,100020.00
2018-10-16T15:25:29.118Z,100014.00
2018-10-16T15:27:58.304Z,100011.00
2018-10-16T15:30:27.514Z,100008.00
2018-10-16T15:32:56.754Z,100010.00
2018-10-16T15:35:25.875Z,100006.00
2018-10-16T15:37:54.848Z,100005.00
2018-10-16T15:40:24.011Z,100008.00
2018-10-16T15:42:53.189Z,100016.00
2018-10-16T15:45:22.325Z,100018.00
2018-10-16T15:47:51.478Z,100011.00
2018-10-16T15:50:20.629Z,100004.00
2018-10-16T15:52:50.849Z,100012.00
2018-10-16T15:55:20.020Z,100014.00
2018-10-16T15:57:49.256Z,100022.00
2018-10-16T16:00:18.321Z,100020.00
2018-10-16T16:02:47.212Z,100027.00
2018-10-16T16:05:16.387Z,100033.00
2018-10-16T16:07:45.525Z,100030.00
2018-10-16T16:10:15.884Z,100034.00
2018-10-16T16:12:45.127Z,100034.00
2018-10-16T16:15:14.763Z,100032.00
2018-10-16T16:17:44.604Z,100039.00
2018-10-16T16:20:14.724Z,100040.00
2018-10-16T16:22:44.165Z,100033.00
2018-10-16T16:25:14.324Z,100041.00
2018-10-16T16:27:43.450Z,100045.00
2018-10-16T16:30:15.936Z,100052.00
2018-10-16T16:32:45.093Z,100041.00
2018-10-16T16:35:14.311Z,100041.00
2018-10-16T16:37:43.441Z,100050.00
2018-10-16T16:40:13.874Z,100044.00
2018-10-16T16:42:42.886Z,100055.00
2018-10-16T16:45:12.599Z,100052.00
2018-10-16T16:47:41.742Z,100053.00
2018-10-16T16:50:12.201Z,100056.00
2018-10-16T16:52:41.941Z,100055.00
2018-10-16T16:55:12.769Z,100056.00
2018-10-16T16:57:41.962Z,100049.00
2018-10-16T17:00:12.117Z,100050.00
2018-10-16T17:02:42.232Z,100053.00
2018-10-16T17:05:11.842Z,100050.00
2018-10-16T17:07:41.618Z,100055.00
2018-10-16T17:10:10.865Z,100061.00
2018-10-16T17:12:40.733Z,100065.00
2018-10-16T17:15:13.635Z,100060.00
2018-10-16T17:17:43.156Z,100059.00
2018-10-16T17:20:12.622Z,100056.00
2018-10-16T17:22:41.762Z,100058.00
2018-10-16T17:25:13.868Z,100058.00
2018-10-16T17:27:43.706Z,100056.00
2018-10-16T17:30:14.790Z,100057.00
2018-10-16T17:32:44.156Z,100059.00
2018-10-16T17:35:13.609Z,100073.00
2018-10-16T17:37:43.163Z,100066.00
2018-10-16T17:40:13.498Z,100059.00
2018-10-16T17:42:42.795Z,100056.00
2018-10-16T17:45:13.345Z,100058.00
2018-10-16T17:47:42.429Z,100067.00
2018-10-16T17:50:14.174Z,100063.00
2018-10-16T17:52:43.378Z,100077.00
2018-10-16T17:55:16.245Z,100067.00
2018-10-16T17:57:45.466Z,100074.00
2018-10-16T18:00:15.903Z,100066.00
2018-10-16T18:02:45.299Z,100077.00
2018-10-16T18:05:14.763Z,100074.00
2018-10-16T18:07:44.574Z,100066.00
2018-10-16T18:10:13.536Z,100066.00
2018-10-16T18:12:42.726Z,100070.00
2018-10-16T18:15:13.094Z,100076.00
2018-10-16T18:17:42.914Z,100068.00
2018-10-16T18:20:14.090Z,100065.00
2018-10-16T18:22:43.576Z,100061.00
2018-10-16T18:25:12.834Z,100064.00
2018-10-16T18:27:42.836Z,100068.00
2018-10-16T18:30:12.218Z,100068.00
2018-10-16T18:32:41.348Z,100060.00
2018-10-16T18:35:10.893Z,100070.00
2018-10-16T18:37:40.756Z,100069.00
2018-10-16T18:40:10.804Z,100062.00
2018-10-16T18:42:40.657Z,100069.00
2018-10-16T18:45:11.575Z,100074.00
2018-10-16T18:47:40.746Z,100074.00
2018-10-16T18:50:11.314Z,100067.00
2018-10-16T18:52:40.505Z,100073.00
2018-10-16T18:55:11.221Z,100080.00
2018-10-16T18:57:41.074Z,100078.00
2018-10-16T19:00:13.402Z,100078.00
2018-10-16T19:02:42.641Z,100078.00
2018-10-16T19:05:11.581Z,100073.00
2018-10-16T19:07:41.449Z,100074.00
2018-10-16T19:10:10.340Z,100078.00
2018-10-16T19:12:40.188Z,100084.00
2018-10-16T19:15:11.510Z,100080.00
2018-10-16T19:17:40.669Z,100087.00
2018-10-16T19:20:11.436Z,100076.00
2018-10-16T19:22:40.802Z,100077.00
2018-10-16T19:25:10.787Z,100069.00
2018-10-16T19:27:40.054Z,100063.00
2018-10-16T19:30:10.641Z,100064.00
2018-10-16T19:32:39.844Z,100073.00
2018-10-16T19:35:09.977Z,100067.00
2018-10-16T19:37:38.985Z,100062.00
2018-10-16T19:40:08.155Z,100058.00
2018-10-16T19:42:37.325Z,100062.00
2018-10-16T19:45:07.563Z,100059.00
2018-10-16T19:47:36.487Z,100059.00
2018-10-16T19:50:06.190Z,100062.00
2018-10-16T19:52:35.353Z,100067.00
2018-10-16T19:55:04.679Z,100060.00
2018-10-16T19:57:33.613Z,100063.00
2018-10-16T20:00:02.616Z,100067.00
2018-10-16T20:02:31.762Z,100062.00
2018-10-16T20:05:00.931Z,100066.00
2018-10-16T20:07:30.114Z,100066.00
2018-10-16T20:09:59.258Z,100062.00
2018-10-16T20:12:28.201Z,100054.00
2018-10-16T20:14:57.376Z,100055.00
2018-10-16T20:17:26.346Z,100056.00
2018-10-16T20:19:55.507Z,100058.00
2018-10-16T20:22:24.710Z,100048.00
2018-10-16T20:25:00.340Z,100044.00
2018-10-16T20:27:29.576Z,100044.00
2018-10-16T20:29:58.493Z,100051.00
2018-10-16T20:32:27.407Z,100044.00
2018-10-16T20:34:56.401Z,100048.00
2018-10-16T20:37:25.360Z,100048.00
2018-10-16T20:39:54.524Z,100051.00
2018-10-16T20:42:23.738Z,100059.00
2018-10-16T20:44:52.657Z,100056.00
2018-10-16T20:47:21.844Z,100053.00
2018-10-16T20:49:51.015Z,100055.00
2018-10-16T20:52:20.181Z,100052.00
2018-10-16T20:54:49.398Z,100048.00
2018-10-16T20:57:18.554Z,100050.00
2018-10-16T20:59:47.922Z,100052.00
2018-10-16T21:02:16.838Z,100055.00
2018-10-16T21:04:45.807Z,100060.00
2018-10-16T21:07:14.763Z,100059.00
2018-10-16T21:09:43.940Z,100046.00
2018-10-16T21:12:13.080Z,100043.00
2018-10-16T21:14:42.016Z,100050.00
2018-10-16T21:17:11.170Z,100037.00
2018-10-16T21:19:40.191Z,100046.00
2018-10-16T21:22:09.263Z,100044.00
2018-10-16T21:24:38.229Z,100044.00
2018-10-16T21:27:09.582Z,100048.00
2018-10-16T21:29:38.543Z,100039.00
2018-10-16T21:32:08.278Z,100033.00
2018-10-16T21:34:37.227Z,100043.00
2018-10-16T21:37:06.439Z,100035.00
2018-10-16T21:39:35.332Z,100032.00
2018-10-16T21:42:04.624Z,100033.00
2018-10-16T21:44:33.824Z,100031.00
2018-10-16T21:47:02.795Z,100035.00
2018-10-16T21:49:31.904Z,100037.00
2018-10-16T21:52:01.047Z,100032.00
2018-10-16T21:54:29.937Z,100043.00
2018-10-16T21:56:58.824Z,100040.00
2018-10-16T21:59:28.048Z,100051.00
2018-10-16T22:02:05.568Z,100045.00
2018-10-16T22:04:34.689Z,100049.00
2018-10-16T22:07:03.734Z,100047.00
2018-10-16T22:09:32.824Z,100050.00
2018-10-16T22:12:01.753Z,100044.00
2018-10-16T22:14:30.948Z,100048.00
2018-10-16T22:17:00.086Z,100048.00
2018-10-16T22:19:30.071Z,100050.00
2018-10-16T22:21:59.232Z,100045.00
2018-10-16T22:24:28.401Z,100042.00
2018-10-16T22:26:57.312Z,100041.00
2018-10-16T22:29:26.293Z,100038.00
2018-10-16T22:31:59.308Z,100047.00
2018-10-16T22:34:28.224Z,100042.00
2018-10-16T22:36:57.437Z,100044.00
2018-10-16T22:39:26.568Z,100041.00
2018-10-16T22:41:55.717Z,100038.00
2018-10-16T22:44:24.894Z,100041.00
2018-10-16T22:46:54.081Z,100041.00
2018-10-16T22:49:23.301Z,100034.00
2018-10-16T22:51:52.449Z,100044.00
2018-10-16T22:54:21.589Z,100037.00
2018-10-16T22:56:50.704Z,100042.00
2018-10-16T22:59:19.893Z,100036.00
2018-10-16T23:01:48.796Z,100033.00
2018-10-16T23:04:20.284Z,100040.00
2018-10-16T23:06:49.324Z,100037.00
2018-10-16T23:09:18.708Z,100028.00
2018-10-16T23:11:47.837Z,100040.00
2018-10-16T23:14:17.009Z,100043.00
2018-10-16T23:16:46.124Z,100040.00
2018-10-16T23:19:15.142Z,100042.00
2018-10-16T23:21:44.199Z,100036.00
2018-10-16T23:24:13.326Z,100036.00
2018-10-16T23:26:42.203Z,100028.00
2018-10-16T23:29:11.410Z,100029.00
2018-10-16T23:31:40.496Z,100029.00
2018-10-16T23:34:09.503Z,100026.00
2018-10-16T23:36:38.403Z,100034.00
2018-10-16T23:39:11.028Z,100030.00
2018-10-16T23:41:40.985Z,100030.00
2018-10-16T23:44:10.305Z,100026.00
2018-10-16T23:46:39.564Z,100023.00
2018-10-16T23:49:09.788Z,100019.00
2018-10-16T23:51:39.128Z,100019.00
2018-10-16T23:54:08.009Z,100025.00
2018-10-16T23:56:39.264Z,100017.00
